createdAt,value
2019-01-30T00:02:06.275Z,0.00
2019-01-30T00:07:07.627Z,0.00
2019-01-30T00:12:09.888Z,0.00
2019-01-30T00:17:11.554Z,0.00
2019-01-30T00:22:12.796Z,0.00
2019-01-30T00:27:14.160Z,0.00
2019-01-30T00:32:15.400Z,0.00
2019-01-30T00:37:16.676Z,0.00
2019-01-30T00:42:17.920Z,0.00
2019-01-30T00:47:19.158Z,0.00
2019-01-30T00:52:20.415Z,0.00
2019-01-30T00:57:21.681Z,0.10
2019-01-30T01:02:23.253Z,0.00
2019-01-30T01:07:24.581Z,0.10
2019-01-30T01:12:25.930Z,0.00
2019-01-30T01:17:27.180Z,0.10
2019-01-30T01:22:28.544Z,0.00
2019-01-30T01:27:29.816Z,-0.10
2019-01-30T01:32:31.059Z,-0.30
2019-01-30T01:37:32.301Z,-0.30
2019-01-30T01:42:33.601Z,-0.30
2019-01-30T01:47:35.006Z,-0.30
2019-01-30T01:52:36.189Z,-0.30
2019-01-30T01:57:37.736Z,-0.30
2019-01-30T02:02:38.995Z,-0.20
2019-01-30T02:07:40.449Z,-0.20
2019-01-30T02:12:41.697Z,-0.20
2019-01-30T02:17:43.031Z,-0.20
2019-01-30T02:22:44.662Z,-0.20
2019-01-30T02:27:46.114Z,-0.20
2019-01-30T02:32:47.501Z,-0.20
2019-01-30T02:37:49.146Z,-0.20
2019-01-30T02:42:50.402Z,-0.20
2019-01-30T02:47:52.056Z,-0.20
2019-01-30T02:52:53.299Z,-0.30
2019-01-30T02:57:54.554Z,-0.30
2019-01-30T03:02:55.984Z,-0.20
2019-01-30T03:07:57.282Z,-0.20
2019-01-30T03:12:58.543Z,-0.10
2019-01-30T03:17:59.777Z,-0.20
2019-01-30T03:23:01.017Z,-0.10
2019-01-30T03:28:02.565Z,-0.10
2019-01-30T03:33:03.823Z,-0.10
2019-01-30T03:38:05.378Z,-0.10
2019-01-30T03:43:06.598Z,0.00
2019-01-30T03:48:07.849Z,0.00
2019-01-30T03:53:09.082Z,0.10
2019-01-30T03:58:10.344Z,0.10
2019-01-30T04:03:11.610Z,0.00
2019-01-30T04:08:12.840Z,0.00
2019-01-30T04:13:14.082Z,0.00
2019-01-30T04:18:15.417Z,0.10
2019-01-30T04:23:16.658Z,0.00
2019-01-30T04:28:17.880Z,0.10
2019-01-30T04:33:19.112Z,0.10
2019-01-30T04:38:20.346Z,0.10
2019-01-30T04:43:21.576Z,0.10
2019-01-30T04:48:22.916Z,0.10
2019-01-30T04:53:24.155Z,0.10
2019-01-30T04:58:25.393Z,0.10
2019-01-30T05:03:26.646Z,0.20
2019-01-30T05:08:27.876Z,0.20
2019-01-30T05:13:29.131Z,0.20
2019-01-30T05:18:30.451Z,0.20
2019-01-30T05:23:31.795Z,0.20
2019-01-30T05:28:33.038Z,0.20
2019-01-30T05:33:34.306Z,0.30
2019-01-30T05:38:35.542Z,0.20
2019-01-30T05:43:36.780Z,0.20
2019-01-30T05:48:38.066Z,0.20
2019-01-30T05:53:39.343Z,0.30
2019-01-30T05:58:40.592Z,0.30
2019-01-30T06:03:41.820Z,0.40
2019-01-30T06:08:43.076Z,0.40
2019-01-30T06:13:44.299Z,0.40
2019-01-30T06:18:45.554Z,0.40
2019-01-30T06:23:46.793Z,0.50
2019-01-30T06:28:48.037Z,0.50
2019-01-30T06:33:49.259Z,0.50
2019-01-30T06:38:50.532Z,0.50
2019-01-30T06:43:51.768Z,0.40
2019-01-30T06:48:53.036Z,0.30
2019-01-30T06:53:54.285Z,0.20
2019-01-30T06:58:55.540Z,0.20
2019-01-30T07:03:56.784Z,0.10
2019-01-30T07:08:58.036Z,0.00
2019-01-30T07:13:59.276Z,-0.20
2019-01-30T07:19:00.531Z,-0.20
2019-01-30T07:24:01.868Z,-0.20
2019-01-30T07:29:03.522Z,-0.30
2019-01-30T07:34:04.757Z,-0.30
2019-01-30T07:39:07.412Z,-0.30
2019-01-30T07:44:08.689Z,-0.30
2019-01-30T07:49:09.917Z,-0.30
2019-01-30T07:54:11.162Z,-0.30
2019-01-30T07:59:12.408Z,-0.30
2019-01-30T08:04:13.632Z,-0.30
2019-01-30T08:09:14.889Z,-0.30
2019-01-30T08:14:16.137Z,-0.30
2019-01-30T08:19:17.415Z,-0.30
2019-01-30T08:24:18.955Z,-0.40
2019-01-30T08:29:20.878Z,-0.40
2019-01-30T08:34:22.141Z,-0.30
2019-01-30T08:39:23.374Z,-0.30
2019-01-30T08:44:24.747Z,-0.20
2019-01-30T08:49:26.004Z,-0.20
2019-01-30T08:54:27.256Z,-0.20
2019-01-30T08:59:28.506Z,-0.10
2019-01-30T09:04:30.057Z,0.00
2019-01-30T09:09:31.298Z,0.00
2019-01-30T09:14:32.536Z,0.00
2019-01-30T09:19:33.793Z,0.10
2019-01-30T09:24:35.133Z,0.10
2019-01-30T09:29:36.385Z,0.20
2019-01-30T09:34:37.626Z,0.30
2019-01-30T09:39:38.884Z,0.30
2019-01-30T09:44:40.178Z,0.40
2019-01-30T09:49:41.427Z,0.40
2019-01-30T09:54:42.667Z,0.50
2019-01-30T09:59:43.892Z,0.60
2019-01-30T10:04:45.155Z,0.60
2019-01-30T10:09:46.391Z,0.60
2019-01-30T10:14:47.742Z,0.50
2019-01-30T10:19:48.989Z,0.60
2019-01-30T10:24:50.691Z,0.70
2019-01-30T10:29:51.987Z,0.70
2019-01-30T10:34:53.230Z,0.70
2019-01-30T10:39:54.498Z,0.70
2019-01-30T10:44:55.771Z,0.60
2019-01-30T10:49:57.009Z,0.60
2019-01-30T10:54:58.281Z,0.60
2019-01-30T10:59:59.548Z,0.70
2019-01-30T11:05:00.799Z,0.80
2019-01-30T11:10:06.847Z,0.70
2019-01-30T11:15:12.924Z,0.90
2019-01-30T11:20:17.472Z,1.00
2019-01-30T11:25:30.223Z,1.20
2019-01-30T11:30:32.004Z,1.20
2019-01-30T11:35:33.327Z,1.10
2019-01-30T11:40:35.673Z,1.10
2019-01-30T11:45:42.621Z,2.30
2019-01-30T11:50:43.965Z,1.70
2019-01-30T11:55:45.223Z,1.40
2019-01-30T12:00:50.985Z,1.40
2019-01-30T12:05:52.254Z,1.40
2019-01-30T12:10:53.530Z,1.30
2019-01-30T12:15:54.982Z,1.50
2019-01-30T12:20:56.234Z,1.70
2019-01-30T12:25:57.572Z,2.00
2019-01-30T12:30:58.808Z,2.20
2019-01-30T12:36:00.037Z,2.40
2019-01-30T12:41:01.290Z,2.20
2019-01-30T12:46:02.933Z,2.40
2019-01-30T12:51:04.205Z,3.00
2019-01-30T12:56:05.467Z,3.70
2019-01-30T13:01:06.964Z,3.80
2019-01-30T13:06:08.196Z,3.90
2019-01-30T13:11:09.563Z,3.50
2019-01-30T13:16:13.569Z,3.40
2019-01-30T13:21:14.829Z,3.40
2019-01-30T13:26:16.089Z,3.30
2019-01-30T13:31:17.385Z,3.20
2019-01-30T13:36:18.748Z,3.20
2019-01-30T13:41:20.327Z,3.10
2019-01-30T13:46:21.867Z,3.00
2019-01-30T13:51:23.097Z,3.00
2019-01-30T13:56:24.383Z,2.90
2019-01-30T14:01:26.360Z,2.90
2019-01-30T14:06:27.590Z,2.90
2019-01-30T14:11:28.959Z,2.90
2019-01-30T14:16:30.425Z,2.90
2019-01-30T14:21:31.761Z,2.80
2019-01-30T14:26:33.030Z,2.80
2019-01-30T14:31:34.262Z,2.80
2019-01-30T14:36:35.529Z,2.70
2019-01-30T14:41:36.859Z,2.60
2019-01-30T14:46:39.141Z,2.60
2019-01-30T14:51:40.441Z,2.50
2019-01-30T14:56:41.776Z,2.50
2019-01-30T15:01:43.010Z,2.40
2019-01-30T15:06:44.295Z,2.40
2019-01-30T15:11:45.513Z,2.30
2019-01-30T15:16:46.732Z,2.30
2019-01-30T15:21:48.107Z,2.30
2019-01-30T15:26:49.359Z,2.10
2019-01-30T15:31:50.647Z,2.10
2019-01-30T15:36:51.901Z,2.10
2019-01-30T15:41:53.144Z,2.10
2019-01-30T15:46:54.434Z,2.10
2019-01-30T15:51:55.686Z,2.10
2019-01-30T15:56:57.040Z,2.10
2019-01-30T16:01:58.351Z,2.10
2019-01-30T16:06:59.592Z,2.20
2019-01-30T16:12:00.946Z,2.20
2019-01-30T16:17:02.543Z,2.10
2019-01-30T16:22:04.902Z,2.10
2019-01-30T16:27:06.204Z,2.10
2019-01-30T16:32:07.472Z,2.00
2019-01-30T16:37:09.065Z,1.90
2019-01-30T16:42:10.321Z,1.90
2019-01-30T16:47:11.587Z,1.90
2019-01-30T16:52:12.834Z,1.90
2019-01-30T16:57:14.149Z,1.80
2019-01-30T17:02:15.388Z,1.80
2019-01-30T17:07:16.656Z,1.80
2019-01-30T17:12:17.935Z,1.80
2019-01-30T17:17:19.223Z,1.80
2019-01-30T17:22:20.473Z,1.80
2019-01-30T17:27:21.757Z,1.70
2019-01-30T17:32:23.028Z,1.60
2019-01-30T17:37:24.305Z,1.70
2019-01-30T17:42:25.679Z,1.80
2019-01-30T17:47:26.934Z,1.80
2019-01-30T17:52:28.185Z,1.80
2019-01-30T17:57:29.463Z,1.80
2019-01-30T18:02:30.721Z,1.80
2019-01-30T18:07:32.114Z,1.80
2019-01-30T18:12:33.410Z,1.90
2019-01-30T18:17:34.711Z,1.90
2019-01-30T18:22:36.060Z,1.80
2019-01-30T18:27:37.343Z,1.70
2019-01-30T18:32:38.604Z,1.60
2019-01-30T18:37:39.988Z,1.50
2019-01-30T18:42:42.060Z,1.30
2019-01-30T18:47:43.348Z,1.20
2019-01-30T18:52:44.799Z,1.10
2019-01-30T18:57:47.105Z,1.00
2019-01-30T19:02:48.883Z,1.10
2019-01-30T19:07:50.175Z,1.10
2019-01-30T19:12:51.561Z,1.10
2019-01-30T19:17:53.033Z,1.20
2019-01-30T19:22:54.302Z,1.30
2019-01-30T19:27:56.236Z,1.30
2019-01-30T19:32:58.010Z,1.50
2019-01-30T19:37:59.280Z,1.50
2019-01-30T19:43:00.657Z,1.50
2019-01-30T19:48:02.351Z,1.60
2019-01-30T19:53:05.925Z,1.70
2019-01-30T19:58:07.619Z,1.70
2019-01-30T20:03:13.239Z,1.80
2019-01-30T20:08:15.040Z,1.80
2019-01-30T20:13:16.411Z,1.70
2019-01-30T20:18:17.811Z,1.70
2019-01-30T20:23:19.172Z,1.70
2019-01-30T20:28:20.709Z,1.70
2019-01-30T20:33:22.081Z,1.60
2019-01-30T20:38:23.415Z,1.60
2019-01-30T20:43:24.721Z,1.60
2019-01-30T20:48:26.120Z,1.60
2019-01-30T20:53:27.388Z,1.60
2019-01-30T20:58:28.666Z,1.60
2019-01-30T21:03:29.928Z,1.70
2019-01-30T21:08:31.228Z,1.70
2019-01-30T21:13:32.471Z,1.70
2019-01-30T21:18:33.858Z,1.70
2019-01-30T21:23:35.119Z,1.60
2019-01-30T21:28:36.417Z,1.60
2019-01-30T21:33:37.683Z,1.60
2019-01-30T21:38:39.051Z,1.60
2019-01-30T21:43:40.346Z,1.60
2019-01-30T21:48:41.611Z,1.50
2019-01-30T21:53:42.861Z,1.50
2019-01-30T21:58:44.122Z,1.60
2019-01-30T22:03:45.458Z,1.60
2019-01-30T22:08:46.718Z,1.50
2019-01-30T22:13:47.981Z,1.50
2019-01-30T22:18:49.233Z,1.50
2019-01-30T22:23:50.485Z,1.40
2019-01-30T22:28:51.763Z,1.30
2019-01-30T22:33:53.038Z,1.20
2019-01-30T22:38:54.278Z,1.10
2019-01-30T22:43:55.542Z,0.90
2019-01-30T22:48:56.797Z,0.80
2019-01-30T22:53:58.048Z,0.60
2019-01-30T22:58:59.329Z,0.40
2019-01-30T23:04:09.324Z,0.30
2019-01-30T23:09:41.674Z,0.10
2019-01-30T23:14:51.407Z,0.00
2019-01-30T23:19:58.153Z,0.00
2019-01-30T23:25:23.626Z,-0.10
2019-01-30T23:30:56.822Z,-0.30
2019-01-30T23:36:26.954Z,-0.10
2019-01-30T23:41:44.941Z,-0.30
2019-01-30T23:47:27.651Z,-0.40
2019-01-30T23:53:08.109Z,-0.50
2019-01-30T23:58:44.068Z,-0.60
